Time;durP1;ratioP1;P1;durP2;ratioP2;P2;SDS_P1;SDS_P2;PMS_P1;PMS_P2;Temp;Humidity;BMP_temperature;BMP_pressure;BME280_temperature;BME280_humidity;BME280_pressure;Samples;Min_cycle;Max_cycle;Signal;HPM_P1;HPM_P2
2024/04/23 00:01:38;;;;;;;15.77;5.60;;;2.80;98.00;;;;;;5380376;26;20523;-84
2024/04/23 00:04:07;;;;;;;14.33;5.90;;;2.80;98.00;;;;;;5379765;26;20477;-86
2024/04/23 00:06:33;;;;;;;14.87;5.87;;;2.60;98.00;;;;;;5380162;26;20453;-84
2024/04/23 00:09:01;;;;;;;11.73;5.20;;;2.50;98.00;;;;;;5380427;26;20451;-84
2024/04/23 00:11:30;;;;;;;10.07;5.30;;;2.60;98.00;;;;;;5379950;26;20468;-84
2024/04/23 00:13:59;;;;;;;8.17;4.73;;;2.40;98.00;;;;;;5379460;26;20544;-84
2024/04/23 00:16:25;;;;;;;11.57;5.60;;;2.40;98.00;;;;;;5379961;26;20461;-84
2024/04/23 00:18:54;;;;;;;9.20;4.93;;;2.60;98.00;;;;;;5380264;26;20549;-84
2024/04/23 00:21:20;;;;;;;13.93;4.90;;;2.50;98.00;;;;;;5380039;26;20510;-84
2024/04/23 00:23:49;;;;;;;12.10;4.40;;;2.40;98.00;;;;;;5379421;26;20461;-84
2024/04/23 00:26:15;;;;;;;10.20;5.00;;;2.30;98.00;;;;;;5379650;26;20465;-84
2024/04/23 00:28:46;;;;;;;11.80;5.20;;;2.30;98.00;;;;;;5379886;26;20473;-84
2024/04/23 00:31:12;;;;;;;12.17;5.03;;;2.40;98.00;;;;;;5379975;26;20472;-84
2024/04/23 00:33:41;;;;;;;9.47;4.80;;;2.40;98.00;;;;;;5379706;26;20535;-84
2024/04/23 00:36:07;;;;;;;13.63;4.90;;;2.30;98.00;;;;;;5380340;26;20511;-86
2024/04/23 00:38:35;;;;;;;13.50;5.43;;;2.20;98.00;;;;;;5380629;26;21023;-85
2024/04/23 00:41:01;;;;;;;11.10;4.60;;;2.10;98.00;;;;;;5380815;26;20527;-84
2024/04/23 00:43:30;;;;;;;10.07;4.80;;;2.00;98.00;;;;;;5382470;26;20584;-84
2024/04/23 00:46:00;;;;;;;11.40;4.97;;;1.90;98.00;;;;;;5379617;26;20457;-84
2024/04/23 00:48:30;;;;;;;8.27;4.10;;;1.80;98.00;;;;;;5381181;26;20555;-84
2024/04/23 00:50:56;;;;;;;10.53;4.80;;;1.80;98.00;;;;;;5380894;26;21026;-84
2024/04/23 00:53:25;;;;;;;11.67;4.70;;;1.80;98.00;;;;;;5380913;26;20500;-84
2024/04/23 00:55:53;;;;;;;11.07;4.60;;;1.90;98.00;;;;;;5379760;26;20986;-85
2024/04/23 00:58:21;;;;;;;10.40;4.90;;;2.00;98.00;;;;;;5380889;26;20874;-84
2024/04/23 01:00:47;;;;;;;9.20;4.67;;;2.00;98.00;;;;;;5380576;26;20536;-85
2024/04/23 01:03:19;;;;;;;10.43;5.10;;;1.90;98.00;;;;;;5381895;26;20980;-84
2024/04/23 01:05:45;;;;;;;10.20;5.13;;;1.90;98.00;;;;;;5379931;26;20456;-84
2024/04/23 01:08:13;;;;;;;8.50;4.50;;;2.00;98.00;;;;;;5380728;26;21145;-84
2024/04/23 01:10:41;;;;;;;8.40;4.53;;;2.10;98.00;;;;;;5380667;26;20808;-83
2024/04/23 01:13:10;;;;;;;9.30;4.67;;;2.20;98.00;;;;;;5381175;26;20460;-87
2024/04/23 01:15:37;;;;;;;9.83;4.93;;;2.30;98.00;;;;;;5379577;26;20513;-84
2024/04/23 01:18:08;;;;;;;11.47;5.00;;;2.20;98.00;;;;;;5377452;26;20460;-86
2024/04/23 01:20:38;;;;;;;9.20;4.73;;;2.10;98.00;;;;;;5380172;26;20480;-84
2024/04/23 01:23:13;;;;;;;8.13;4.33;;;2.10;98.00;;;;;;5380491;26;20832;-84
2024/04/23 01:25:41;;;;;;;12.87;5.00;;;2.20;98.00;;;;;;5378926;26;20532;-85
2024/04/23 01:28:14;;;;;;;9.67;4.80;;;2.20;98.00;;;;;;5379945;26;20452;-87
2024/04/23 01:30:41;;;;;;;9.50;4.70;;;2.10;98.00;;;;;;5379839;26;20524;-84
2024/04/23 01:33:14;;;;;;;8.97;4.67;;;2.10;98.00;;;;;;5379818;26;20444;-85
2024/04/23 01:35:40;;;;;;;9.63;4.67;;;2.10;98.00;;;;;;5379192;26;20519;-85
2024/04/23 01:38:10;;;;;;;9.47;4.40;;;2.10;98.00;;;;;;5380720;26;20472;-84
2024/04/23 01:40:37;;;;;;;7.83;4.33;;;1.90;98.00;;;;;;5381406;26;20509;-85
2024/04/23 01:43:07;;;;;;;10.33;4.53;;;1.80;98.00;;;;;;5384290;26;20995;-84
2024/04/23 01:45:36;;;;;;;8.27;4.50;;;1.60;98.00;;;;;;5382970;26;20456;-84
2024/04/23 01:48:07;;;;;;;7.40;3.97;;;1.70;98.00;;;;;;5384483;26;20519;-84
2024/04/23 01:50:33;;;;;;;8.27;4.20;;;1.70;98.00;;;;;;5383773;26;20563;-85
2024/04/23 01:53:01;;;;;;;8.43;4.27;;;1.70;98.00;;;;;;5383471;26;21102;-84
2024/04/23 01:55:28;;;;;;;8.17;4.50;;;1.70;98.00;;;;;;5383102;26;20522;-84
2024/04/23 01:57:56;;;;;;;9.10;4.90;;;1.60;98.00;;;;;;5379448;26;20549;-84
2024/04/23 02:00:23;;;;;;;9.73;4.40;;;1.40;98.00;;;;;;5381944;26;20472;-85
2024/04/23 02:02:56;;;;;;;14.40;4.67;;;1.60;98.00;;;;;;5383987;26;20875;-84
2024/04/23 02:05:24;;;;;;;8.83;4.70;;;1.50;98.00;;;;;;5383321;26;20555;-86
2024/04/23 02:07:53;;;;;;;8.23;4.07;;;1.60;98.00;;;;;;5384044;26;20464;-86
2024/04/23 02:10:20;;;;;;;9.57;4.70;;;1.60;98.00;;;;;;5384029;26;20530;-85
2024/04/23 02:12:48;;;;;;;8.27;4.60;;;1.70;98.00;;;;;;5383716;26;21059;-84
2024/04/23 02:15:15;;;;;;;10.70;4.30;;;1.60;98.00;;;;;;5381960;26;20459;-86
2024/04/23 02:17:43;;;;;;;8.70;4.30;;;1.50;98.00;;;;;;5380429;26;20546;-84
2024/04/23 02:20:12;;;;;;;8.07;4.27;;;1.50;98.00;;;;;;5378697;26;20486;-85
2024/04/23 02:22:41;;;;;;;8.70;4.90;;;1.70;98.00;;;;;;5379205;26;20468;-84
2024/04/23 02:25:07;;;;;;;14.93;6.40;;;1.60;98.00;;;;;;5378102;26;21058;-84
2024/04/23 02:27:36;;;;;;;18.33;6.70;;;1.50;98.00;;;;;;5378909;26;20494;-85
2024/04/23 02:30:02;;;;;;;13.70;6.43;;;1.30;98.00;;;;;;5378909;26;20468;-84
2024/04/23 02:32:31;;;;;;;12.93;5.47;;;1.20;98.00;;;;;;5379512;26;20583;-84
2024/04/23 02:34:57;;;;;;;10.10;5.00;;;1.10;98.00;;;;;;5378486;26;21021;-84
2024/04/23 02:37:28;;;;;;;11.90;5.70;;;1.10;98.00;;;;;;5378861;26;20468;-84
2024/04/23 02:39:54;;;;;;;11.67;5.00;;;1.10;98.00;;;;;;5378791;26;20974;-84
2024/04/23 02:42:23;;;;;;;10.97;4.80;;;1.10;98.00;;;;;;5379161;26;20452;-84
2024/04/23 02:44:49;;;;;;;10.10;4.80;;;1.20;98.00;;;;;;5377740;26;20464;-85
2024/04/23 02:47:17;;;;;;;9.57;5.17;;;1.30;98.00;;;;;;5378373;26;20867;-84
2024/04/23 02:49:43;;;;;;;9.17;4.57;;;1.40;98.00;;;;;;5378631;26;21096;-84
2024/04/23 02:52:12;;;;;;;8.80;4.50;;;1.30;98.00;;;;;;5378840;26;20483;-84
2024/04/23 02:54:41;;;;;;;9.43;4.53;;;1.30;98.00;;;;;;5378928;26;20517;-84
2024/04/23 02:57:09;;;;;;;9.00;5.00;;;1.30;98.00;;;;;;5378874;26;20939;-84
2024/04/23 02:59:35;;;;;;;9.47;4.87;;;1.30;98.00;;;;;;5378137;26;20467;-86
2024/04/23 03:02:05;;;;;;;9.60;4.90;;;1.20;98.00;;;;;;5378206;26;21111;-86
2024/04/23 03:04:32;;;;;;;7.20;4.33;;;1.10;98.00;;;;;;5377360;26;20987;-84
2024/04/23 03:07:01;;;;;;;8.97;4.83;;;1.00;98.00;;;;;;5378039;26;20555;-84
2024/04/23 03:09:27;;;;;;;10.47;4.90;;;1.00;98.00;;;;;;5380141;26;20468;-85
2024/04/23 03:11:59;;;;;;;13.37;5.23;;;0.90;98.00;;;;;;5384336;26;20554;-84
2024/04/23 03:14:25;;;;;;;9.17;4.70;;;0.90;98.00;;;;;;5385642;26;20456;-84
2024/04/23 03:16:53;;;;;;;14.13;5.20;;;0.90;98.00;;;;;;5387889;26;20448;-84
2024/04/23 03:19:19;;;;;;;12.60;5.10;;;0.90;98.00;;;;;;5387272;26;20463;-84
2024/04/23 03:21:53;;;;;;;7.00;4.30;;;0.90;98.00;;;;;;5387309;26;20790;-85
2024/04/23 03:24:19;;;;;;;9.80;5.00;;;1.00;98.00;;;;;;5386976;26;20498;-84
2024/04/23 03:26:49;;;;;;;9.73;4.93;;;1.20;98.00;;;;;;5387833;26;20543;-84
2024/04/23 03:29:18;;;;;;;8.40;4.57;;;1.40;98.00;;;;;;5383020;26;20467;-84
2024/04/23 03:31:47;;;;;;;8.43;4.60;;;1.50;98.00;;;;;;5381096;26;20476;-85
2024/04/23 03:34:13;;;;;;;10.17;4.70;;;1.60;98.00;;;;;;5380513;26;20456;-84
2024/04/23 03:36:41;;;;;;;10.83;5.13;;;1.70;98.00;;;;;;5380924;26;20463;-84
2024/04/23 03:39:10;;;;;;;8.30;4.87;;;1.50;98.00;;;;;;5381426;26;20455;-84
2024/04/23 03:41:39;;;;;;;10.47;4.63;;;1.30;98.00;;;;;;5381005;26;20590;-85
2024/04/23 03:44:07;;;;;;;10.23;5.20;;;1.10;98.00;;;;;;5380251;26;20448;-84
2024/04/23 03:46:39;;;;;;;11.10;4.73;;;1.10;98.00;;;;;;5380782;26;20506;-84
2024/04/23 03:49:05;;;;;;;9.70;4.60;;;1.20;98.00;;;;;;5383629;26;20510;-84
2024/04/23 03:51:33;;;;;;;8.63;4.30;;;1.20;98.00;;;;;;5381020;26;20472;-84
2024/04/23 03:54:02;;;;;;;8.70;4.20;;;1.20;98.00;;;;;;5380725;26;20447;-84
2024/04/23 03:56:28;;;;;;;8.53;4.67;;;1.20;98.00;;;;;;5381492;26;20855;-84
2024/04/23 03:58:56;;;;;;;13.83;5.57;;;1.10;98.00;;;;;;5381525;26;20885;-84
2024/04/23 04:01:22;;;;;;;10.07;4.57;;;0.80;98.00;;;;;;5380824;26;20528;-85
2024/04/23 04:06:38;;;;;;;14.40;5.70;;;0.70;98.00;;;;;;5382823;26;21062;-84
2024/04/23 04:09:07;;;;;;;11.53;5.27;;;0.60;98.00;;;;;;5380703;26;20460;-84
2024/04/23 04:11:37;;;;;;;11.90;5.63;;;0.50;98.00;;;;;;5380628;26;20525;-84
2024/04/23 04:14:05;;;;;;;12.67;5.10;;;0.60;98.00;;;;;;5379625;26;20448;-85
2024/04/23 04:16:31;;;;;;;9.50;4.67;;;0.70;98.00;;;;;;5380644;26;20500;-84
2024/04/23 04:19:03;;;;;;;8.90;4.83;;;0.60;98.00;;;;;;5380259;26;20471;-85
2024/04/23 04:21:32;;;;;;;10.43;4.90;;;0.60;98.00;;;;;;5378713;26;20525;-85
2024/04/23 04:23:58;;;;;;;9.63;4.90;;;0.50;98.00;;;;;;5380016;26;20459;-83
2024/04/23 04:26:26;;;;;;;9.33;4.60;;;0.40;98.00;;;;;;5380528;26;20518;-84
2024/04/23 04:28:52;;;;;;;10.40;5.23;;;0.40;98.00;;;;;;5380586;26;20463;-84
2024/04/23 04:31:21;;;;;;;10.10;5.80;;;0.40;98.00;;;;;;5379989;26;20483;-84
2024/04/23 04:33:47;;;;;;;9.63;4.87;;;0.40;98.00;;;;;;5379000;26;20503;-85
2024/04/23 04:36:18;;;;;;;9.60;5.03;;;0.60;98.00;;;;;;5380161;26;20452;-85
2024/04/23 04:38:44;;;;;;;10.60;5.00;;;0.50;98.00;;;;;;5380023;26;20527;-84
2024/04/23 04:41:13;;;;;;;10.43;4.93;;;0.60;98.00;;;;;;5379998;26;20472;-84
2024/04/23 04:43:39;;;;;;;12.00;5.70;;;0.50;98.00;;;;;;5379784;26;20464;-83
2024/04/23 04:46:09;;;;;;;10.03;4.83;;;0.60;98.00;;;;;;5380468;26;20463;-83
2024/04/23 04:48:35;;;;;;;9.97;4.50;;;0.60;98.00;;;;;;5379704;26;20580;-84
2024/04/23 04:51:04;;;;;;;10.50;5.10;;;0.80;98.00;;;;;;5379999;26;20468;-84
2024/04/23 04:53:32;;;;;;;9.40;4.57;;;0.70;98.00;;;;;;5379803;26;20468;-84
2024/04/23 04:56:01;;;;;;;11.67;5.10;;;0.90;98.00;;;;;;5379091;26;20468;-84
2024/04/23 04:58:27;;;;;;;10.50;5.20;;;1.00;98.00;;;;;;5379676;26;20516;-84
2024/04/23 05:00:56;;;;;;;13.50;5.23;;;1.00;98.00;;;;;;5379671;26;20472;-85
2024/04/23 05:03:22;;;;;;;11.23;5.50;;;1.10;98.00;;;;;;5379825;26;21023;-84
2024/04/23 05:05:50;;;;;;;11.23;5.27;;;1.30;98.00;;;;;;5378506;26;20475;-85
2024/04/23 05:08:16;;;;;;;13.03;5.30;;;1.50;98.00;;;;;;5379522;26;20998;-84
2024/04/23 05:10:48;;;;;;;8.43;4.90;;;1.40;98.00;;;;;;5378996;26;20561;-83
2024/04/23 05:13:14;;;;;;;11.20;5.50;;;1.40;98.00;;;;;;5379214;26;20464;-84
2024/04/23 05:15:42;;;;;;;9.57;5.17;;;1.50;98.00;;;;;;5378710;26;20516;-85
2024/04/23 05:18:08;;;;;;;14.17;5.00;;;1.60;98.00;;;;;;5379472;26;20515;-83
2024/04/23 05:20:37;;;;;;;12.03;5.57;;;1.40;98.00;;;;;;5379062;26;20475;-84
2024/04/23 05:23:03;;;;;;;9.83;5.00;;;1.40;98.00;;;;;;5379161;26;20543;-84
2024/04/23 05:25:32;;;;;;;8.70;5.10;;;1.40;98.00;;;;;;5378468;26;20789;-84
2024/04/23 05:28:00;;;;;;;10.00;5.00;;;1.40;98.00;;;;;;5379406;26;20512;-85
2024/04/23 05:33:14;;;;;;;11.77;6.07;;;1.70;98.00;;;;;;5381369;26;20502;-83
2024/04/23 05:35:43;;;;;;;13.00;6.07;;;1.70;98.00;;;;;;5378443;26;20852;-84
2024/04/23 05:38:12;;;;;;;11.30;5.40;;;1.70;98.00;;;;;;5379444;26;20488;-84
2024/04/23 05:40:40;;;;;;;13.83;5.80;;;1.80;98.00;;;;;;5379161;26;20526;-84
2024/04/23 05:43:11;;;;;;;10.20;5.97;;;1.90;98.00;;;;;;5379615;26;20472;-86
2024/04/23 05:45:38;;;;;;;11.50;5.70;;;2.00;98.00;;;;;;5378571;26;20506;-84
2024/04/23 05:48:44;;;;;;;14.20;6.07;;;2.10;98.00;;;;;;5379055;26;20503;-84
2024/04/23 05:51:50;;;;;;;12.87;6.00;;;2.20;98.00;;;;;;5379142;26;20526;-84
2024/04/23 05:54:55;;;;;;;12.23;5.87;;;2.30;98.00;;;;;;5378285;26;20839;-84
2024/04/23 05:57:21;;;;;;;11.70;5.67;;;2.40;98.00;;;;;;5379051;26;20463;-84
2024/04/23 05:59:53;;;;;;;13.07;5.40;;;2.40;98.00;;;;;;5378987;26;20463;-85
2024/04/23 06:02:23;;;;;;;14.33;5.80;;;2.60;98.00;;;;;;5379907;26;20456;-86
2024/04/23 06:04:49;;;;;;;13.57;6.10;;;2.50;98.00;;;;;;5378495;26;20882;-84
2024/04/23 06:07:18;;;;;;;14.03;6.07;;;2.40;98.00;;;;;;5378779;26;20452;-84
2024/04/23 06:09:44;;;;;;;13.37;6.07;;;2.40;98.00;;;;;;5378997;26;20452;-84
2024/04/23 06:12:12;;;;;;;17.27;7.20;;;2.30;98.00;;;;;;5379007;26;20842;-84
2024/04/23 06:14:43;;;;;;;15.60;6.80;;;2.30;98.00;;;;;;5378071;26;20509;-84
2024/04/23 06:17:23;;;;;;;13.97;6.70;;;2.30;98.00;;;;;;5378577;26;20524;-84
2024/04/23 06:19:50;;;;;;;14.47;6.60;;;2.50;98.00;;;;;;5378315;26;20468;-84
2024/04/23 06:22:20;;;;;;;10.13;5.70;;;2.60;98.00;;;;;;5378519;26;20460;-84
2024/04/23 06:24:49;;;;;;;13.90;6.70;;;2.60;98.00;;;;;;5377786;26;20496;-84
2024/04/23 06:27:20;;;;;;;14.37;5.93;;;2.80;98.00;;;;;;5378837;26;20539;-84
2024/04/23 06:29:49;;;;;;;13.70;6.13;;;3.00;98.00;;;;;;5378916;26;20469;-84
2024/04/23 06:32:18;;;;;;;13.53;6.40;;;3.20;98.00;;;;;;5379160;26;20980;-84
2024/04/23 06:34:49;;;;;;;17.10;5.87;;;3.20;98.00;;;;;;5378966;26;20512;-84
2024/04/23 06:37:16;;;;;;;13.53;6.40;;;3.30;98.00;;;;;;5380581;26;21066;-84
2024/04/23 06:39:46;;;;;;;12.27;5.97;;;3.40;98.00;;;;;;5380774;26;20461;-84
2024/04/23 06:42:12;;;;;;;13.20;6.17;;;3.60;98.00;;;;;;5378913;26;20508;-84
2024/04/23 06:44:41;;;;;;;11.80;5.80;;;3.70;98.00;;;;;;5380766;26;20959;-84
2024/04/23 06:47:07;;;;;;;13.80;6.10;;;3.80;98.00;;;;;;5382651;26;20512;-84
2024/04/23 06:49:40;;;;;;;13.90;6.60;;;3.80;98.00;;;;;;5382801;26;20475;-84
2024/04/23 06:52:08;;;;;;;11.37;5.97;;;4.00;98.00;;;;;;5382238;26;20831;-84
2024/04/23 06:54:37;;;;;;;15.87;6.87;;;4.10;98.00;;;;;;5381556;26;20452;-84
2024/04/23 06:57:03;;;;;;;12.73;5.83;;;4.20;98.00;;;;;;5382223;26;20520;-83
2024/04/23 06:59:32;;;;;;;11.83;5.97;;;4.10;98.00;;;;;;5382155;26;20469;-83
2024/04/23 07:01:58;;;;;;;13.00;6.37;;;4.00;98.00;;;;;;5381798;26;21084;-84
2024/04/23 07:04:26;;;;;;;12.60;6.30;;;4.10;98.00;;;;;;5381184;26;20541;-83
2024/04/23 07:06:55;;;;;;;13.03;6.90;;;4.10;98.00;;;;;;5382134;26;20507;-83
2024/04/23 07:09:24;;;;;;;14.37;6.60;;;4.10;98.00;;;;;;5381714;26;20505;-83
2024/04/23 07:11:50;;;;;;;17.10;6.63;;;4.20;98.00;;;;;;5382119;26;20844;-83
2024/04/23 07:14:18;;;;;;;12.53;6.07;;;4.40;98.00;;;;;;5380615;26;20929;-83
2024/04/23 07:16:46;;;;;;;11.37;6.30;;;4.60;98.00;;;;;;5381879;26;20446;-83
2024/04/23 07:19:14;;;;;;;14.63;6.40;;;4.70;98.00;;;;;;5381856;26;20474;-83
2024/04/23 07:21:40;;;;;;;14.00;6.37;;;5.00;98.00;;;;;;5381559;26;20482;-83
2024/04/23 07:24:12;;;;;;;10.90;5.80;;;5.00;98.00;;;;;;5380598;26;20510;-83
2024/04/23 07:26:39;;;;;;;11.60;5.73;;;5.20;98.00;;;;;;5381650;26;21086;-84
2024/04/23 07:29:08;;;;;;;12.17;5.80;;;5.10;98.00;;;;;;5381476;26;20524;-83
2024/04/23 07:31:34;;;;;;;12.77;6.20;;;5.20;98.00;;;;;;5381144;26;20476;-83
2024/04/23 07:34:02;;;;;;;11.13;5.73;;;5.40;98.00;;;;;;5380326;26;20466;-84
2024/04/23 07:36:28;;;;;;;11.57;6.07;;;5.40;98.00;;;;;;5381457;26;20509;-84
2024/04/23 07:38:57;;;;;;;12.60;6.07;;;5.50;98.00;;;;;;5380895;26;20482;-84
2024/04/23 07:41:26;;;;;;;14.73;6.30;;;5.50;98.00;;;;;;5380871;26;20461;-84
2024/04/23 07:43:54;;;;;;;10.90;5.97;;;5.50;98.00;;;;;;5380197;26;20814;-84
2024/04/23 07:46:20;;;;;;;13.53;5.90;;;5.80;98.00;;;;;;5380784;26;20466;-84
2024/04/23 07:48:49;;;;;;;13.03;6.30;;;5.90;98.00;;;;;;5381454;26;20884;-83
2024/04/23 07:51:15;;;;;;;13.07;6.00;;;5.90;98.00;;;;;;5379049;26;20516;-83
2024/04/23 07:53:45;;;;;;;10.77;5.77;;;5.90;98.00;;;;;;5378537;26;20465;-83
2024/04/23 07:56:11;;;;;;;14.40;6.30;;;6.00;98.00;;;;;;5380221;26;20461;-84
2024/04/23 07:58:42;;;;;;;10.63;5.60;;;6.30;98.00;;;;;;5380375;26;20467;-83
2024/04/23 08:01:08;;;;;;;13.50;4.00;;;6.50;98.00;;;;;;5379372;26;20534;-83
2024/04/23 08:03:39;;;;;;;11.93;5.70;;;7.20;98.00;;;;;;5380560;26;20471;-84
2024/04/23 08:06:06;;;;;;;13.67;6.50;;;8.10;98.00;;;;;;5379448;26;20615;-83
2024/04/23 08:08:34;;;;;;;10.20;5.53;;;8.10;98.00;;;;;;5379861;26;20464;-84
2024/04/23 08:11:01;;;;;;;13.20;6.07;;;8.20;98.00;;;;;;5380212;26;21005;-84
2024/04/23 08:20:32;;;;;;;11.63;5.80;;;8.00;98.00;;;;;;5382701;26;20578;-84
2024/04/23 08:22:58;;;;;;;13.00;5.40;;;8.40;98.00;;;;;;5380479;26;20457;-83
2024/04/23 08:25:27;;;;;;;10.47;5.67;;;8.60;98.00;;;;;;5379152;26;20647;-83
2024/04/23 08:27:53;;;;;;;13.00;5.83;;;8.90;98.00;;;;;;5380418;26;20506;-83
2024/04/23 08:30:22;;;;;;;10.40;5.60;;;9.10;98.00;;;;;;5380013;26;20594;-83
2024/04/23 08:32:49;;;;;;;14.43;5.23;;;9.40;98.00;;;;;;5379718;26;20864;-83
2024/04/23 08:35:17;;;;;;;10.40;5.03;;;9.50;98.00;;;;;;5379676;26;20581;-83
2024/04/23 08:37:46;;;;;;;8.87;4.40;;;9.60;98.00;;;;;;5379826;26;20512;-84
2024/04/23 08:40:15;;;;;;;9.43;5.37;;;9.80;98.00;;;;;;5379518;26;20551;-84
2024/04/23 08:42:47;;;;;;;11.47;5.77;;;10.10;98.00;;;;;;5379355;26;21079;-84
2024/04/23 08:45:16;;;;;;;9.43;5.63;;;10.20;98.00;;;;;;5378321;26;20526;-84
2024/04/23 08:47:45;;;;;;;9.73;6.03;;;10.30;98.00;;;;;;5379121;26;21107;-85
2024/04/23 08:50:12;;;;;;;8.97;4.97;;;10.20;98.00;;;;;;5378504;26;20487;-84
2024/04/23 08:52:41;;;;;;;11.53;6.20;;;10.10;98.00;;;;;;5379253;26;20975;-85
2024/04/23 08:55:10;;;;;;;11.17;5.20;;;9.90;98.00;;;;;;5377433;26;21027;-83
2024/04/23 08:57:40;;;;;;;9.97;5.30;;;10.00;98.00;;;;;;5378636;26;21007;-86
2024/04/23 09:00:09;;;;;;;9.27;5.37;;;10.50;98.00;;;;;;5345787;26;20464;-85
2024/04/23 09:02:39;;;;;;;9.10;5.40;;;10.40;98.00;;;;;;5378842;26;20509;-84
2024/04/23 09:05:06;;;;;;;9.13;5.47;;;10.60;98.00;;;;;;5378238;26;20828;-84
2024/04/23 09:07:37;;;;;;;11.10;6.00;;;10.50;98.00;;;;;;5378120;26;20543;-84
2024/04/23 09:10:05;;;;;;;10.83;6.00;;;10.60;98.00;;;;;;5379182;26;20482;-85
2024/04/23 09:12:37;;;;;;;8.80;5.00;;;10.80;98.00;;;;;;5378848;26;20546;-84
2024/04/23 09:15:03;;;;;;;10.50;5.60;;;10.90;98.00;;;;;;5377556;26;20448;-85
2024/04/23 09:17:34;;;;;;;11.60;6.00;;;11.10;98.00;;;;;;5379077;26;20462;-85
2024/04/23 09:20:01;;;;;;;12.83;5.93;;;11.20;98.00;;;;;;5379067;26;20519;-86
2024/04/23 09:22:30;;;;;;;11.20;6.07;;;11.20;98.00;;;;;;5378627;26;20545;-85
2024/04/23 09:25:02;;;;;;;11.93;6.07;;;11.00;98.00;;;;;;5377927;26;20466;-84
2024/04/23 09:27:38;;;;;;;9.80;5.70;;;11.10;98.00;;;;;;5378563;26;20887;-85
2024/04/23 09:30:06;;;;;;;13.77;5.90;;;11.30;98.00;;;;;;5378641;26;21212;-85
2024/04/23 09:32:39;;;;;;;12.17;5.80;;;11.30;98.00;;;;;;5378307;26;20463;-85
2024/04/23 09:35:14;;;;;;;11.30;6.00;;;11.30;98.00;;;;;;5377623;26;20816;-84
2024/04/23 09:37:50;;;;;;;10.27;5.60;;;11.20;96.90;;;;;;5378033;26;20820;-84
2024/04/23 09:40:16;;;;;;;9.43;5.57;;;11.20;98.00;;;;;;5377958;26;20864;-85
2024/04/23 09:42:52;;;;;;;9.77;5.23;;;11.20;98.00;;;;;;5378715;26;20502;-85
2024/04/23 09:45:21;;;;;;;8.90;5.23;;;11.20;96.90;;;;;;5377343;26;20482;-85
2024/04/23 09:47:50;;;;;;;9.57;5.60;;;11.00;97.80;;;;;;5379993;26;20525;-85
2024/04/23 09:50:17;;;;;;;10.17;5.23;;;10.90;95.50;;;;;;5378313;26;20472;-85
2024/04/23 09:52:47;;;;;;;7.97;4.97;;;11.00;98.00;;;;;;5377529;26;20816;-85
2024/04/23 09:55:15;;;;;;;12.63;5.40;;;11.10;97.40;;;;;;5377457;26;20463;-85
2024/04/23 09:57:50;;;;;;;9.43;5.27;;;11.50;98.00;;;;;;5378514;26;20459;-85
2024/04/23 10:00:20;;;;;;;9.30;5.33;;;11.60;96.00;;;;;;5378104;26;20523;-85
2024/04/23 10:02:54;;;;;;;9.37;5.03;;;11.50;95.60;;;;;;5378318;26;20850;-84
2024/04/23 10:05:26;;;;;;;9.50;5.30;;;11.40;94.80;;;;;;5378141;26;20464;-84
2024/04/23 10:08:08;;;;;;;9.30;5.33;;;11.40;96.10;;;;;;5379320;26;20458;-85
2024/04/23 10:10:39;;;;;;;10.97;5.70;;;11.30;95.50;;;;;;5378803;26;21057;-84
2024/04/23 10:13:13;;;;;;;10.47;5.37;;;11.10;96.10;;;;;;5378813;26;20828;-85
2024/04/23 10:15:46;;;;;;;10.23;5.63;;;11.00;96.60;;;;;;5378008;26;20456;-85
2024/04/23 10:18:20;;;;;;;10.77;5.60;;;10.90;95.40;;;;;;5379621;26;20552;-85
2024/04/23 10:20:52;;;;;;;9.17;5.23;;;11.00;97.10;;;;;;5381568;26;20521;-85
2024/04/23 10:23:19;;;;;;;10.60;5.53;;;11.40;95.60;;;;;;5381744;26;20455;-84
2024/04/23 10:25:48;;;;;;;9.93;5.33;;;11.80;97.10;;;;;;5380803;26;20986;-84
2024/04/23 10:28:17;;;;;;;7.63;4.33;;;12.20;97.00;;;;;;5384673;26;21068;-84
2024/04/23 10:30:47;;;;;;;11.67;5.40;;;12.00;94.60;;;;;;5382671;26;20834;-84
2024/04/23 10:33:14;;;;;;;9.27;5.40;;;11.80;94.50;;;;;;5381811;26;20496;-84
2024/04/23 10:35:44;;;;;;;8.80;5.40;;;11.70;94.00;;;;;;5380926;26;20464;-85
2024/04/23 10:38:15;;;;;;;10.63;5.07;;;11.50;95.00;;;;;;5382592;26;20521;-85
2024/04/23 10:40:46;;;;;;;9.53;5.50;;;11.60;96.10;;;;;;5382517;26;20533;-84
2024/04/23 10:43:13;;;;;;;13.33;5.20;;;11.60;94.80;;;;;;5381946;26;20848;-85
2024/04/23 10:45:46;;;;;;;9.47;5.07;;;11.40;95.10;;;;;;5380202;26;20531;-85
2024/04/23 10:48:12;;;;;;;10.43;5.53;;;11.20;96.10;;;;;;5382141;26;20517;-85
2024/04/23 10:50:41;;;;;;;10.10;5.10;;;11.20;96.90;;;;;;5381040;26;20475;-84
2024/04/23 10:53:09;;;;;;;8.20;5.03;;;11.20;96.90;;;;;;5381269;26;20446;-84
2024/04/23 10:55:38;;;;;;;11.33;5.93;;;11.10;95.90;;;;;;5380727;26;20590;-84
2024/04/23 10:58:07;;;;;;;12.20;5.70;;;11.00;96.30;;;;;;5381068;26;20506;-84
2024/04/23 11:00:37;;;;;;;9.93;5.30;;;11.00;96.50;;;;;;5380708;26;20534;-84
2024/04/23 11:03:16;;;;;;;9.90;5.47;;;11.00;97.20;;;;;;5381356;26;20471;-84
2024/04/23 11:05:48;;;;;;;9.33;4.80;;;11.00;96.10;;;;;;5381018;26;20482;-84
2024/04/23 11:08:24;;;;;;;9.80;5.50;;;11.10;97.70;;;;;;5382001;26;20456;-85
2024/04/23 11:10:53;;;;;;;8.70;4.67;;;11.50;97.10;;;;;;5380550;26;20496;-85
2024/04/23 11:13:27;;;;;;;11.37;4.80;;;11.50;94.50;;;;;;5380840;26;20456;-85
2024/04/23 11:15:58;;;;;;;13.47;6.93;;;11.50;95.00;;;;;;5380045;26;20784;-84
2024/04/23 11:18:38;;;;;;;11.67;6.17;;;11.30;95.20;;;;;;5380995;26;20534;-86
2024/04/23 11:21:10;;;;;;;9.67;5.47;;;11.30;96.50;;;;;;5383023;26;20528;-84
2024/04/23 11:23:39;;;;;;;8.63;5.27;;;11.30;96.90;;;;;;5381209;26;20465;-84
2024/04/23 11:26:10;;;;;;;10.87;5.37;;;11.20;96.60;;;;;;5380703;26;20564;-85
2024/04/23 11:28:37;;;;;;;7.80;4.63;;;11.20;96.20;;;;;;5381026;26;20799;-84
2024/04/23 11:31:06;;;;;;;9.87;5.13;;;11.20;95.70;;;;;;5380072;26;21078;-85
2024/04/23 11:33:39;;;;;;;8.37;4.83;;;11.40;94.80;;;;;;5380549;26;20998;-84
2024/04/23 11:36:09;;;;;;;8.33;4.73;;;11.60;95.30;;;;;;5381649;26;20496;-85
2024/04/23 11:38:42;;;;;;;8.80;4.90;;;11.70;95.20;;;;;;5382279;26;20475;-85
2024/04/23 11:41:14;;;;;;;11.10;4.67;;;11.80;94.50;;;;;;5380840;26;20589;-84
2024/04/23 11:43:44;;;;;;;9.23;5.00;;;12.00;94.00;;;;;;5380299;26;20446;-84
2024/04/23 11:46:17;;;;;;;10.30;5.17;;;12.10;95.00;;;;;;5381446;26;20525;-84
2024/04/23 11:48:45;;;;;;;7.30;4.63;;;12.20;93.80;;;;;;5384362;26;20467;-84
2024/04/23 11:51:15;;;;;;;8.40;5.20;;;12.20;93.50;;;;;;5380724;26;20462;-84
2024/04/23 11:53:41;;;;;;;9.17;5.23;;;12.00;91.90;;;;;;5380232;26;20463;-84
2024/04/23 11:56:11;;;;;;;10.23;5.10;;;12.00;92.90;;;;;;5381439;26;20591;-84
2024/04/23 11:58:38;;;;;;;9.60;5.00;;;12.00;94.00;;;;;;5381066;26;21034;-84
2024/04/23 12:01:07;;;;;;;7.70;4.63;;;12.00;92.40;;;;;;5380707;26;20566;-84
2024/04/23 12:03:33;;;;;;;8.57;4.93;;;12.10;94.30;;;;;;5380783;26;20509;-84
2024/04/23 12:06:05;;;;;;;7.23;4.80;;;12.10;94.50;;;;;;5380252;26;20449;-84
2024/04/23 12:08:31;;;;;;;9.50;4.70;;;12.10;93.30;;;;;;5380647;26;20464;-84
2024/04/23 12:11:00;;;;;;;10.37;5.23;;;12.20;94.10;;;;;;5380327;26;20473;-84
2024/04/23 12:13:27;;;;;;;8.00;4.73;;;12.40;93.60;;;;;;5378845;26;20464;-85
2024/04/23 12:15:56;;;;;;;8.80;5.50;;;12.50;93.90;;;;;;5378113;26;20524;-84
2024/04/23 12:18:22;;;;;;;9.07;5.37;;;12.70;94.50;;;;;;5380337;26;20900;-84
2024/04/23 12:20:51;;;;;;;9.20;5.50;;;12.90;93.70;;;;;;5380057;26;20479;-84
2024/04/23 12:23:20;;;;;;;9.07;5.20;;;12.90;91.40;;;;;;5380092;26;20465;-84
2024/04/23 12:25:49;;;;;;;11.50;5.00;;;12.80;90.40;;;;;;5379180;26;20473;-84
2024/04/23 12:28:16;;;;;;;11.43;5.63;;;12.90;92.00;;;;;;5379912;26;20498;-84
2024/04/23 12:30:45;;;;;;;9.83;5.40;;;13.10;92.70;;;;;;5380096;26;20516;-84
2024/04/23 12:33:12;;;;;;;10.30;5.20;;;13.20;92.30;;;;;;5379542;26;20461;-85
2024/04/23 12:35:42;;;;;;;7.57;4.60;;;13.10;91.80;;;;;;5379350;26;20532;-85
2024/04/23 12:38:09;;;;;;;8.70;5.20;;;13.10;91.70;;;;;;5380458;26;20509;-85
2024/04/23 12:40:41;;;;;;;14.00;5.97;;;12.80;92.30;;;;;;5379917;26;20570;-84
2024/04/23 12:43:08;;;;;;;9.77;5.07;;;12.60;91.80;;;;;;5380231;26;20519;-85
2024/04/23 12:45:37;;;;;;;9.93;4.80;;;12.50;93.50;;;;;;5379469;26;20589;-84
2024/04/23 12:48:04;;;;;;;8.23;5.03;;;12.30;93.30;;;;;;5382887;26;20462;-84
2024/04/23 12:50:33;;;;;;;10.67;4.83;;;12.10;92.70;;;;;;5380707;26;20838;-84
2024/04/23 12:52:59;;;;;;;7.00;4.17;;;12.00;94.00;;;;;;5381348;26;20513;-84
2024/04/23 12:55:30;;;;;;;8.93;4.80;;;12.10;93.50;;;;;;5379698;26;20512;-85
2024/04/23 12:57:59;;;;;;;7.23;4.77;;;12.30;92.20;;;;;;5380863;26;21012;-84
2024/04/23 13:00:27;;;;;;;10.17;5.00;;;12.50;94.90;;;;;;5381179;26;20948;-84
2024/04/23 13:02:53;;;;;;;8.00;4.77;;;12.70;93.50;;;;;;5381486;26;20509;-85
2024/04/23 13:05:22;;;;;;;8.00;4.60;;;12.80;92.60;;;;;;5379479;26;20461;-84
2024/04/23 13:07:48;;;;;;;8.70;5.40;;;12.80;93.40;;;;;;5380997;26;20464;-85
2024/04/23 13:10:17;;;;;;;8.80;5.00;;;12.80;92.70;;;;;;5381097;26;20556;-84